sensor_id;sensor_type;location;lat;lon;timestamp;P1;durP1;ratioP1;P2;durP2;ratioP2
17504;SDS011;8870;50.950;11.762;2023-01-19T00:02:50;8.70;;;7.03;;
17504;SDS011;8870;50.950;11.762;2023-01-19T00:08:21;9.63;;;7.18;;
17504;SDS011;8870;50.950;11.762;2023-01-19T00:13:42;10.27;;;6.90;;
17504;SDS011;8870;50.950;11.762;2023-01-19T00:19:14;10.18;;;6.72;;
17504;SDS011;8870;50.950;11.762;2023-01-19T00:24:32;11.10;;;7.13;;
17504;SDS011;8870;50.950;11.762;2023-01-19T00:30:08;10.73;;;7.20;;
17504;SDS011;8870;50.950;11.762;2023-01-19T00:35:35;9.13;;;6.05;;
17504;SDS011;8870;50.950;11.762;2023-01-19T00:41:06;9.93;;;6.22;;
17504;SDS011;8870;50.950;11.762;2023-01-19T00:46:27;7.10;;;5.05;;
17504;SDS011;8870;50.950;11.762;2023-01-19T00:51:58;6.53;;;4.40;;
17504;SDS011;8870;50.950;11.762;2023-01-19T00:57:16;6.60;;;4.60;;
17504;SDS011;8870;50.950;11.762;2023-01-19T01:02:51;6.75;;;4.35;;
17504;SDS011;8870;50.950;11.762;2023-01-19T01:08:23;6.28;;;4.60;;
17504;SDS011;8870;50.950;11.762;2023-01-19T01:13:41;7.68;;;4.75;;
17504;SDS011;8870;50.950;11.762;2023-01-19T01:19:16;9.38;;;5.13;;
17504;SDS011;8870;50.950;11.762;2023-01-19T01:24:35;7.63;;;4.60;;
17504;SDS011;8870;50.950;11.762;2023-01-19T01:30:07;8.30;;;4.30;;
17504;SDS011;8870;50.950;11.762;2023-01-19T01:35:37;7.88;;;4.53;;
17504;SDS011;8870;50.950;11.762;2023-01-19T01:41:09;5.43;;;4.20;;
17504;SDS011;8870;50.950;11.762;2023-01-19T01:46:32;5.53;;;3.70;;
17504;SDS011;8870;50.950;11.762;2023-01-19T01:52:06;5.10;;;3.42;;
17504;SDS011;8870;50.950;11.762;2023-01-19T01:57:24;5.45;;;3.80;;
17504;SDS011;8870;50.950;11.762;2023-01-19T02:02:56;6.43;;;3.70;;
17504;SDS011;8870;50.950;11.762;2023-01-19T02:08:17;5.07;;;3.65;;
17504;SDS011;8870;50.950;11.762;2023-01-19T02:14:07;5.45;;;4.32;;
17504;SDS011;8870;50.950;11.762;2023-01-19T02:19:28;5.10;;;3.70;;
17504;SDS011;8870;50.950;11.762;2023-01-19T02:25:05;5.72;;;3.85;;
17504;SDS011;8870;50.950;11.762;2023-01-19T02:30:24;6.35;;;3.50;;
17504;SDS011;8870;50.950;11.762;2023-01-19T02:35:57;5.03;;;3.60;;
17504;SDS011;8870;50.950;11.762;2023-01-19T02:41:35;4.65;;;3.20;;
17504;SDS011;8870;50.950;11.762;2023-01-19T02:46:56;5.65;;;3.70;;
17504;SDS011;8870;50.950;11.762;2023-01-19T02:52:27;4.70;;;3.10;;
17504;SDS011;8870;50.950;11.762;2023-01-19T02:57:52;7.18;;;3.50;;
17504;SDS011;8870;50.950;11.762;2023-01-19T03:03:30;4.70;;;3.30;;
17504;SDS011;8870;50.950;11.762;2023-01-19T03:09:08;5.55;;;3.40;;
17504;SDS011;8870;50.950;11.762;2023-01-19T03:14:44;4.81;;;3.37;;
17504;SDS011;8870;50.950;11.762;2023-01-19T03:20:18;4.97;;;3.53;;
17504;SDS011;8870;50.950;11.762;2023-01-19T03:25:43;6.03;;;3.50;;
17504;SDS011;8870;50.950;11.762;2023-01-19T03:31:22;5.28;;;3.58;;
17504;SDS011;8870;50.950;11.762;2023-01-19T03:36:49;6.05;;;3.72;;
17504;SDS011;8870;50.950;11.762;2023-01-19T03:42:23;5.05;;;4.07;;
17504;SDS011;8870;50.950;11.762;2023-01-19T03:47:46;6.82;;;3.90;;
17504;SDS011;8870;50.950;11.762;2023-01-19T03:53:19;6.32;;;4.25;;
17504;SDS011;8870;50.950;11.762;2023-01-19T03:58:38;6.47;;;4.47;;
17504;SDS011;8870;50.950;11.762;2023-01-19T04:04:13;6.22;;;4.53;;
17504;SDS011;8870;50.950;11.762;2023-01-19T04:09:31;7.80;;;4.72;;
17504;SDS011;8870;50.950;11.762;2023-01-19T04:15:05;6.18;;;4.13;;
17504;SDS011;8870;50.950;11.762;2023-01-19T04:20:27;6.70;;;4.65;;
17504;SDS011;8870;50.950;11.762;2023-01-19T04:25:59;5.65;;;4.20;;
17504;SDS011;8870;50.950;11.762;2023-01-19T04:31:20;5.22;;;3.95;;
17504;SDS011;8870;50.950;11.762;2023-01-19T04:36:55;7.05;;;4.78;;
17504;SDS011;8870;50.950;11.762;2023-01-19T04:42:13;6.05;;;4.70;;
17504;SDS011;8870;50.950;11.762;2023-01-19T04:47:45;7.38;;;4.82;;
17504;SDS011;8870;50.950;11.762;2023-01-19T04:53:06;8.10;;;4.93;;
17504;SDS011;8870;50.950;11.762;2023-01-19T04:58:39;6.72;;;5.45;;
17504;SDS011;8870;50.950;11.762;2023-01-19T05:03:57;5.43;;;4.80;;
17504;SDS011;8870;50.950;11.762;2023-01-19T05:09:32;6.50;;;4.80;;
17504;SDS011;8870;50.950;11.762;2023-01-19T05:14:50;6.30;;;5.40;;
17504;SDS011;8870;50.950;11.762;2023-01-19T05:20:22;7.07;;;5.35;;
17504;SDS011;8870;50.950;11.762;2023-01-19T05:25:44;6.55;;;5.15;;
17504;SDS011;8870;50.950;11.762;2023-01-19T05:31:17;6.72;;;5.07;;
17504;SDS011;8870;50.950;11.762;2023-01-19T05:36:35;5.70;;;4.97;;
17504;SDS011;8870;50.950;11.762;2023-01-19T05:42:09;6.22;;;5.10;;
17504;SDS011;8870;50.950;11.762;2023-01-19T05:47:27;8.38;;;5.45;;
17504;SDS011;8870;50.950;11.762;2023-01-19T05:53:00;7.70;;;5.70;;
17504;SDS011;8870;50.950;11.762;2023-01-19T05:58:22;8.70;;;5.63;;
17504;SDS011;8870;50.950;11.762;2023-01-19T06:03:55;7.22;;;5.85;;
17504;SDS011;8870;50.950;11.762;2023-01-19T06:09:13;7.07;;;5.90;;
17504;SDS011;8870;50.950;11.762;2023-01-19T06:14:48;7.10;;;5.95;;
17504;SDS011;8870;50.950;11.762;2023-01-19T06:20:07;7.32;;;5.72;;
17504;SDS011;8870;50.950;11.762;2023-01-19T06:25:39;7.40;;;6.00;;
17504;SDS011;8870;50.950;11.762;2023-01-19T06:31:00;7.28;;;5.70;;
17504;SDS011;8870;50.950;11.762;2023-01-19T06:36:31;7.80;;;6.50;;
17504;SDS011;8870;50.950;11.762;2023-01-19T06:41:50;8.75;;;6.60;;
17504;SDS011;8870;50.950;11.762;2023-01-19T06:47:25;7.57;;;6.30;;
17504;SDS011;8870;50.950;11.762;2023-01-19T06:52:43;9.85;;;7.05;;
17504;SDS011;8870;50.950;11.762;2023-01-19T06:58:14;7.32;;;6.20;;
17504;SDS011;8870;50.950;11.762;2023-01-19T07:03:35;8.73;;;6.50;;
17504;SDS011;8870;50.950;11.762;2023-01-19T07:09:06;8.27;;;6.25;;
17504;SDS011;8870;50.950;11.762;2023-01-19T07:14:26;7.82;;;6.32;;
17504;SDS011;8870;50.950;11.762;2023-01-19T07:20:00;8.90;;;6.82;;
17504;SDS011;8870;50.950;11.762;2023-01-19T07:25:18;8.52;;;6.97;;
17504;SDS011;8870;50.950;11.762;2023-01-19T07:30:50;9.57;;;7.25;;
17504;SDS011;8870;50.950;11.762;2023-01-19T07:36:11;9.25;;;7.13;;
17504;SDS011;8870;50.950;11.762;2023-01-19T07:41:42;9.18;;;7.43;;
17504;SDS011;8870;50.950;11.762;2023-01-19T07:47:00;8.77;;;7.32;;
17504;SDS011;8870;50.950;11.762;2023-01-19T07:52:36;7.82;;;6.80;;
17504;SDS011;8870;50.950;11.762;2023-01-19T07:57:54;10.13;;;8.13;;
17504;SDS011;8870;50.950;11.762;2023-01-19T08:03:27;12.20;;;8.18;;
17504;SDS011;8870;50.950;11.762;2023-01-19T08:08:48;11.13;;;8.48;;
17504;SDS011;8870;50.950;11.762;2023-01-19T08:14:19;11.70;;;8.15;;
17504;SDS011;8870;50.950;11.762;2023-01-19T08:19:38;11.23;;;7.38;;
17504;SDS011;8870;50.950;11.762;2023-01-19T08:25:13;9.23;;;7.68;;
17504;SDS011;8870;50.950;11.762;2023-01-19T08:30:31;9.27;;;7.97;;
17504;SDS011;8870;50.950;11.762;2023-01-19T08:36:04;10.40;;;8.80;;
17504;SDS011;8870;50.950;11.762;2023-01-19T08:41:26;11.15;;;8.45;;
17504;SDS011;8870;50.950;11.762;2023-01-19T08:46:57;9.13;;;8.10;;
17504;SDS011;8870;50.950;11.762;2023-01-19T08:52:16;10.07;;;8.02;;
17504;SDS011;8870;50.950;11.762;2023-01-19T08:57:52;11.52;;;8.57;;
17504;SDS011;8870;50.950;11.762;2023-01-19T09:03:24;9.85;;;8.50;;
17504;SDS011;8870;50.950;11.762;2023-01-19T09:08:42;8.80;;;7.82;;
17504;SDS011;8870;50.950;11.762;2023-01-19T09:14:17;8.25;;;7.43;;
17504;SDS011;8870;50.950;11.762;2023-01-19T09:19:35;9.00;;;8.10;;
17504;SDS011;8870;50.950;11.762;2023-01-19T09:25:08;8.13;;;7.32;;
17504;SDS011;8870;50.950;11.762;2023-01-19T09:30:29;8.60;;;7.35;;
17504;SDS011;8870;50.950;11.762;2023-01-19T09:36:00;9.15;;;6.82;;
17504;SDS011;8870;50.950;11.762;2023-01-19T09:41:19;8.23;;;7.25;;
17504;SDS011;8870;50.950;11.762;2023-01-19T09:46:54;7.53;;;6.78;;
17504;SDS011;8870;50.950;11.762;2023-01-19T09:52:12;7.97;;;6.85;;
17504;SDS011;8870;50.950;11.762;2023-01-19T09:57:45;7.30;;;6.60;;
17504;SDS011;8870;50.950;11.762;2023-01-19T10:03:20;8.13;;;7.32;;
17504;SDS011;8870;50.950;11.762;2023-01-19T10:08:41;8.52;;;6.70;;
17504;SDS011;8870;50.950;11.762;2023-01-19T10:14:27;7.30;;;6.60;;
17504;SDS011;8870;50.950;11.762;2023-01-19T10:19:56;7.63;;;6.82;;
17504;SDS011;8870;50.950;11.762;2023-01-19T10:25:32;8.15;;;6.45;;
17504;SDS011;8870;50.950;11.762;2023-01-19T10:30:52;7.63;;;6.80;;
17504;SDS011;8870;50.950;11.762;2023-01-19T10:36:33;6.97;;;6.25;;
17504;SDS011;8870;50.950;11.762;2023-01-19T10:41:54;6.28;;;5.57;;
17504;SDS011;8870;50.950;11.762;2023-01-19T10:47:34;6.00;;;5.40;;
17504;SDS011;8870;50.950;11.762;2023-01-19T10:52:58;5.47;;;4.80;;
17504;SDS011;8870;50.950;11.762;2023-01-19T10:58:31;5.38;;;4.10;;
17504;SDS011;8870;50.950;11.762;2023-01-19T11:03:53;4.35;;;3.83;;
17504;SDS011;8870;50.950;11.762;2023-01-19T11:09:29;5.60;;;4.45;;
17504;SDS011;8870;50.950;11.762;2023-01-19T11:14:47;4.88;;;4.30;;
17504;SDS011;8870;50.950;11.762;2023-01-19T11:20:22;5.15;;;4.38;;
17504;SDS011;8870;50.950;11.762;2023-01-19T11:25:46;4.75;;;3.90;;
17504;SDS011;8870;50.950;11.762;2023-01-19T11:31:29;4.55;;;4.15;;
17504;SDS011;8870;50.950;11.762;2023-01-19T11:36:54;4.30;;;3.90;;
17504;SDS011;8870;50.950;11.762;2023-01-19T11:42:29;5.22;;;4.07;;
17504;SDS011;8870;50.950;11.762;2023-01-19T11:47:50;4.35;;;3.95;;
17504;SDS011;8870;50.950;11.762;2023-01-19T11:53:22;4.47;;;4.07;;
17504;SDS011;8870;50.950;11.762;2023-01-19T11:58:46;4.45;;;3.90;;
17504;SDS011;8870;50.950;11.762;2023-01-19T12:04:18;4.38;;;3.97;;
17504;SDS011;8870;50.950;11.762;2023-01-19T12:09:43;4.82;;;4.28;;
17504;SDS011;8870;50.950;11.762;2023-01-19T12:15:20;5.25;;;3.80;;
17504;SDS011;8870;50.950;11.762;2023-01-19T12:20:44;4.07;;;3.60;;
17504;SDS011;8870;50.950;11.762;2023-01-19T12:26:30;4.55;;;3.53;;
17504;SDS011;8870;50.950;11.762;2023-01-19T12:38:09;3.25;;;2.97;;
17504;SDS011;8870;50.950;11.762;2023-01-19T12:43:40;3.60;;;3.30;;
17504;SDS011;8870;50.950;11.762;2023-01-19T12:49:16;3.17;;;2.90;;
17504;SDS011;8870;50.950;11.762;2023-01-19T12:54:41;3.40;;;2.72;;
17504;SDS011;8870;50.950;11.762;2023-01-19T13:00:31;2.60;;;2.40;;
17504;SDS011;8870;50.950;11.762;2023-01-19T13:05:53;2.00;;;1.77;;
17504;SDS011;8870;50.950;11.762;2023-01-19T13:11:25;2.20;;;2.00;;
17504;SDS011;8870;50.950;11.762;2023-01-19T13:16:51;2.90;;;2.10;;
17504;SDS011;8870;50.950;11.762;2023-01-19T13:28:34;2.80;;;2.10;;
17504;SDS011;8870;50.950;11.762;2023-01-19T13:34:10;2.97;;;2.47;;
17504;SDS011;8870;50.950;11.762;2023-01-19T13:39:35;3.25;;;2.25;;
17504;SDS011;8870;50.950;11.762;2023-01-19T13:45:15;4.28;;;2.60;;
17504;SDS011;8870;50.950;11.762;2023-01-19T13:50:40;3.03;;;2.20;;
17504;SDS011;8870;50.950;11.762;2023-01-19T13:56:21;2.25;;;2.00;;
17504;SDS011;8870;50.950;11.762;2023-01-19T14:01:40;2.90;;;2.53;;
17504;SDS011;8870;50.950;11.762;2023-01-19T14:07:16;2.83;;;2.30;;
17504;SDS011;8870;50.950;11.762;2023-01-19T14:12:42;3.28;;;2.50;;
17504;SDS011;8870;50.950;11.762;2023-01-19T14:18:22;2.60;;;2.40;;
17504;SDS011;8870;50.950;11.762;2023-01-19T14:23:43;2.92;;;2.55;;
17504;SDS011;8870;50.950;11.762;2023-01-19T14:29:21;3.10;;;2.80;;
17504;SDS011;8870;50.950;11.762;2023-01-19T14:34:42;3.50;;;3.20;;
17504;SDS011;8870;50.950;11.762;2023-01-19T14:40:16;3.80;;;3.20;;
17504;SDS011;8870;50.950;11.762;2023-01-19T14:45:40;3.85;;;3.53;;
17504;SDS011;8870;50.950;11.762;2023-01-19T14:51:17;4.13;;;3.60;;
17504;SDS011;8870;50.950;11.762;2023-01-19T14:56:38;4.97;;;4.10;;
17504;SDS011;8870;50.950;11.762;2023-01-19T15:02:12;5.50;;;4.35;;
17504;SDS011;8870;50.950;11.762;2023-01-19T15:07:44;4.78;;;4.20;;
17504;SDS011;8870;50.950;11.762;2023-01-19T15:13:03;4.70;;;3.70;;
17504;SDS011;8870;50.950;11.762;2023-01-19T15:18:39;4.53;;;3.92;;
17504;SDS011;8870;50.950;11.762;2023-01-19T15:23:57;4.72;;;4.10;;
17504;SDS011;8870;50.950;11.762;2023-01-19T15:29:32;4.25;;;3.80;;
17504;SDS011;8870;50.950;11.762;2023-01-19T15:34:54;4.40;;;3.60;;
17504;SDS011;8870;50.950;11.762;2023-01-19T15:40:27;3.90;;;3.45;;
17504;SDS011;8870;50.950;11.762;2023-01-19T15:45:47;4.28;;;3.53;;
17504;SDS011;8870;50.950;11.762;2023-01-19T15:51:24;4.22;;;3.80;;
17504;SDS011;8870;50.950;11.762;2023-01-19T15:56:44;4.90;;;4.03;;
17504;SDS011;8870;50.950;11.762;2023-01-19T16:02:17;4.07;;;3.58;;
17504;SDS011;8870;50.950;11.762;2023-01-19T16:07:51;4.38;;;3.90;;
17504;SDS011;8870;50.950;11.762;2023-01-19T16:13:10;5.45;;;4.55;;
17504;SDS011;8870;50.950;11.762;2023-01-19T16:18:42;5.30;;;4.80;;
17504;SDS011;8870;50.950;11.762;2023-01-19T16:24:03;5.10;;;4.45;;
17504;SDS011;8870;50.950;11.762;2023-01-19T16:29:34;4.85;;;4.20;;
17504;SDS011;8870;50.950;11.762;2023-01-19T16:34:52;7.40;;;5.32;;
17504;SDS011;8870;50.950;11.762;2023-01-19T16:40:27;5.53;;;4.65;;
17504;SDS011;8870;50.950;11.762;2023-01-19T16:45:56;9.05;;;8.25;;
17504;SDS011;8870;50.950;11.762;2023-01-19T16:51:27;5.00;;;4.13;;
17504;SDS011;8870;50.950;11.762;2023-01-19T16:56:50;4.32;;;3.95;;
17504;SDS011;8870;50.950;11.762;2023-01-19T17:02:22;4.57;;;4.18;;
17504;SDS011;8870;50.950;11.762;2023-01-19T17:07:40;4.53;;;4.00;;
17504;SDS011;8870;50.950;11.762;2023-01-19T17:13:14;5.88;;;4.18;;
17504;SDS011;8870;50.950;11.762;2023-01-19T17:18:33;4.38;;;3.97;;
17504;SDS011;8870;50.950;11.762;2023-01-19T17:24:06;5.10;;;4.07;;
17504;SDS011;8870;50.950;11.762;2023-01-19T17:29:27;4.25;;;3.92;;
17504;SDS011;8870;50.950;11.762;2023-01-19T17:34:58;4.00;;;3.70;;
17504;SDS011;8870;50.950;11.762;2023-01-19T17:40:17;4.00;;;3.70;;
17504;SDS011;8870;50.950;11.762;2023-01-19T17:45:52;4.70;;;3.70;;
17504;SDS011;8870;50.950;11.762;2023-01-19T17:51:11;4.47;;;4.07;;
17504;SDS011;8870;50.950;11.762;2023-01-19T17:56:43;4.82;;;4.43;;
17504;SDS011;8870;50.950;11.762;2023-01-19T18:02:04;6.28;;;5.70;;
17504;SDS011;8870;50.950;11.762;2023-01-19T18:07:35;7.15;;;5.72;;
17504;SDS011;8870;50.950;11.762;2023-01-19T18:13:07;7.30;;;6.60;;
17504;SDS011;8870;50.950;11.762;2023-01-19T18:18:28;8.55;;;7.75;;
17504;SDS011;8870;50.950;11.762;2023-01-19T18:24:01;8.35;;;7.65;;
17504;SDS011;8870;50.950;11.762;2023-01-19T18:29:21;8.80;;;8.00;;
17504;SDS011;8870;50.950;11.762;2023-01-19T18:34:55;7.47;;;6.88;;
17504;SDS011;8870;50.950;11.762;2023-01-19T18:40:14;8.90;;;8.00;;
17504;SDS011;8870;50.950;11.762;2023-01-19T18:45:45;8.55;;;7.75;;
17504;SDS011;8870;50.950;11.762;2023-01-19T18:51:07;9.00;;;8.10;;
17504;SDS011;8870;50.950;11.762;2023-01-19T18:56:39;9.93;;;9.02;;
17504;SDS011;8870;50.950;11.762;2023-01-19T19:01:57;11.20;;;10.20;;
17504;SDS011;8870;50.950;11.762;2023-01-19T19:07:32;10.93;;;9.93;;
17504;SDS011;8870;50.950;11.762;2023-01-19T19:13:03;12.13;;;10.52;;
17504;SDS011;8870;50.950;11.762;2023-01-19T19:18:21;9.30;;;8.40;;
17504;SDS011;8870;50.950;11.762;2023-01-19T19:23:56;7.53;;;6.85;;
17504;SDS011;8870;50.950;11.762;2023-01-19T19:29:14;7.78;;;7.07;;
17504;SDS011;8870;50.950;11.762;2023-01-19T19:34:47;7.70;;;7.00;;
17504;SDS011;8870;50.950;11.762;2023-01-19T19:40:10;8.02;;;7.38;;
17504;SDS011;8870;50.950;11.762;2023-01-19T19:45:42;7.50;;;6.90;;
17504;SDS011;8870;50.950;11.762;2023-01-19T19:51:03;7.93;;;7.22;;
17504;SDS011;8870;50.950;11.762;2023-01-19T19:56:38;11.98;;;10.88;;
17504;SDS011;8870;50.950;11.762;2023-01-19T20:01:56;14.25;;;12.93;;
17504;SDS011;8870;50.950;11.762;2023-01-19T20:07:27;15.93;;;14.43;;
17504;SDS011;8870;50.950;11.762;2023-01-19T20:13:02;15.52;;;14.13;;
17504;SDS011;8870;50.950;11.762;2023-01-19T20:18:21;13.73;;;12.50;;
17504;SDS011;8870;50.950;11.762;2023-01-19T20:23:55;13.80;;;12.57;;
17504;SDS011;8870;50.950;11.762;2023-01-19T20:29:18;14.55;;;13.15;;
17504;SDS011;8870;50.950;11.762;2023-01-19T20:34:50;13.88;;;12.48;;
17504;SDS011;8870;50.950;11.762;2023-01-19T20:40:09;13.57;;;12.27;;
17504;SDS011;8870;50.950;11.762;2023-01-19T20:45:42;13.63;;;12.23;;
17504;SDS011;8870;50.950;11.762;2023-01-19T20:51:02;13.60;;;12.20;;
17504;SDS011;8870;50.950;11.762;2023-01-19T20:56:34;13.82;;;12.00;;
17504;SDS011;8870;50.950;11.762;2023-01-19T21:01:57;12.70;;;11.50;;
17504;SDS011;8870;50.950;11.762;2023-01-19T21:07:34;12.07;;;10.77;;
17504;SDS011;8870;50.950;11.762;2023-01-19T21:13:05;12.45;;;11.18;;
17504;SDS011;8870;50.950;11.762;2023-01-19T21:18:26;12.30;;;11.10;;
17504;SDS011;8870;50.950;11.762;2023-01-19T21:23:59;12.20;;;11.02;;
17504;SDS011;8870;50.950;11.762;2023-01-19T21:29:20;12.80;;;11.50;;
17504;SDS011;8870;50.950;11.762;2023-01-19T21:34:54;13.75;;;12.25;;
17504;SDS011;8870;50.950;11.762;2023-01-19T21:40:13;12.60;;;11.02;;
17504;SDS011;8870;50.950;11.762;2023-01-19T21:45:45;11.98;;;10.77;;
17504;SDS011;8870;50.950;11.762;2023-01-19T21:51:06;10.38;;;9.35;;
17504;SDS011;8870;50.950;11.762;2023-01-19T21:56:37;10.05;;;9.07;;
17504;SDS011;8870;50.950;11.762;2023-01-19T22:01:56;10.73;;;9.40;;
17504;SDS011;8870;50.950;11.762;2023-01-19T22:07:30;13.48;;;12.07;;
17504;SDS011;8870;50.950;11.762;2023-01-19T22:12:48;12.50;;;11.30;;
17504;SDS011;8870;50.950;11.762;2023-01-19T22:18:19;10.70;;;9.70;;
17504;SDS011;8870;50.950;11.762;2023-01-19T22:23:40;10.20;;;9.20;;
17504;SDS011;8870;50.950;11.762;2023-01-19T22:29:12;9.15;;;8.25;;
17504;SDS011;8870;50.950;11.762;2023-01-19T22:34:30;9.50;;;7.47;;
17504;SDS011;8870;50.950;11.762;2023-01-19T22:40:04;9.30;;;8.40;;
17504;SDS011;8870;50.950;11.762;2023-01-19T22:45:23;10.45;;;8.15;;
17504;SDS011;8870;50.950;11.762;2023-01-19T22:50:55;8.57;;;7.72;;
17504;SDS011;8870;50.950;11.762;2023-01-19T22:56:18;8.25;;;7.45;;
17504;SDS011;8870;50.950;11.762;2023-01-19T23:01:50;8.25;;;7.45;;
17504;SDS011;8870;50.950;11.762;2023-01-19T23:07:16;9.15;;;8.35;;
17504;SDS011;8870;50.950;11.762;2023-01-19T23:12:50;8.73;;;7.93;;
17504;SDS011;8870;50.950;11.762;2023-01-19T23:18:08;7.20;;;6.47;;
17504;SDS011;8870;50.950;11.762;2023-01-19T23:23:40;7.45;;;5.75;;
17504;SDS011;8870;50.950;11.762;2023-01-19T23:29:03;6.85;;;6.25;;
17504;SDS011;8870;50.950;11.762;2023-01-19T23:34:37;8.10;;;7.03;;
17504;SDS011;8870;50.950;11.762;2023-01-19T23:39:55;8.60;;;7.60;;
17504;SDS011;8870;50.950;11.762;2023-01-19T23:45:33;8.85;;;7.95;;
17504;SDS011;8870;50.950;11.762;2023-01-19T23:50:51;8.52;;;7.63;;
17504;SDS011;8870;50.950;11.762;2023-01-19T23:56:23;7.47;;;6.88;;
